Time;durP1;ratioP1;P1;durP2;ratioP2;P2;SDS_P1;SDS_P2;PMS_P1;PMS_P2;Temp;Humidity;BMP_temperature;BMP_pressure;BME280_temperature;BME280_humidity;BME280_pressure;Samples;Min_cycle;Max_cycle;Signal;HPM_P1;HPM_P2
2021/11/25 00:01:12;;;;;;;14.07;10.15;;;;;;;7.08;59.82;100786.31;5073447;28;20044;-59
2021/11/25 00:03:40;;;;;;;15.45;10.55;;;;;;;6.67;61.25;100786.69;5074510;28;20059;-60
2021/11/25 00:06:07;;;;;;;13.52;10.02;;;;;;;6.87;61.39;100790.34;5073917;28;20052;-59
2021/11/25 00:08:34;;;;;;;15.23;10.50;;;;;;;6.98;60.88;100800.91;5067752;28;20057;-62
2021/11/25 00:11:02;;;;;;;18.00;10.45;;;;;;;7.18;60.09;100808.13;5074574;28;20040;-62
2021/11/25 00:13:29;;;;;;;13.82;9.48;;;;;;;6.97;60.77;100798.47;5074708;28;20049;-62
2021/11/25 00:15:56;;;;;;;12.85;8.57;;;;;;;7.02;61.07;100798.41;5056150;28;20044;-62
2021/11/25 00:18:23;;;;;;;14.07;9.18;;;;;;;7.17;60.98;100785.38;5073263;28;20049;-62
2021/11/25 00:20:53;;;;;;;14.65;9.52;;;;;;;7.22;60.69;100784.53;5074458;28;20594;-61
2021/11/25 00:23:20;;;;;;;13.75;8.93;;;;;;;7.38;60.67;100796.94;5068484;28;20045;-62
2021/11/25 00:25:47;;;;;;;17.58;9.23;;;;;;;6.93;61.49;100792.75;5073216;28;20048;-62
2021/11/25 00:28:15;;;;;;;15.85;8.40;;;;;;;7.02;61.66;100788.28;5072903;28;20055;-62
2021/11/25 00:30:42;;;;;;;13.43;8.52;;;;;;;7.30;61.03;100787.47;5071347;28;20056;-62
2021/11/25 00:33:10;;;;;;;12.40;8.90;;;;;;;7.02;62.26;100781.97;5054094;28;20053;-62
2021/11/25 00:35:37;;;;;;;14.52;9.23;;;;;;;6.95;62.13;100781.50;5052640;28;20060;-62
2021/11/25 00:38:05;;;;;;;12.95;9.15;;;;;;;6.85;62.94;100766.00;5055849;28;20056;-62
2021/11/25 00:40:33;;;;;;;13.55;9.40;;;;;;;6.69;63.71;100764.50;5092973;28;20379;-62
2021/11/25 00:43:00;;;;;;;12.73;8.88;;;;;;;6.93;63.44;100765.38;5082058;28;20048;-61
2021/11/25 00:45:28;;;;;;;17.35;9.02;;;;;;;7.16;62.78;100767.34;5077576;28;20048;-62
2021/11/25 00:47:55;;;;;;;13.35;9.20;;;;;;;6.94;62.53;100761.50;5078352;28;20056;-62
2021/11/25 00:50:22;;;;;;;15.85;9.18;;;;;;;7.00;63.30;100765.03;5077991;28;20048;-59
2021/11/25 00:52:50;;;;;;;14.60;10.02;;;;;;;6.73;63.75;100760.88;5077519;28;20063;-60
2021/11/25 00:55:18;;;;;;;14.98;9.90;;;;;;;6.70;64.05;100758.72;5077397;28;20052;-59
2021/11/25 00:57:45;;;;;;;15.13;9.80;;;;;;;6.52;65.16;100759.41;5077408;28;20061;-58
2021/11/25 01:00:20;;;;;;;13.55;9.57;;;;;;;6.27;65.95;100761.53;5076134;28;20415;-60
2021/11/25 01:02:47;;;;;;;14.88;9.65;;;;;;;6.63;64.71;100757.41;5077671;28;20044;-58
2021/11/25 01:05:16;;;;;;;16.42;9.63;;;;;;;6.53;64.59;100750.13;5077389;28;20056;-59
2021/11/25 01:07:45;;;;;;;13.98;9.82;;;;;;;6.52;64.75;100766.81;5073497;28;20060;-57
2021/11/25 01:10:15;;;;;;;17.23;10.05;;;;;;;6.65;64.38;100763.44;5056144;28;20060;-57
2021/11/25 01:12:43;;;;;;;14.52;10.25;;;;;;;6.39;64.92;100762.81;5057381;28;20071;-60
2021/11/25 01:15:15;;;;;;;14.07;9.27;;;;;;;6.61;64.05;100756.88;5072856;28;20056;-60
2021/11/25 01:17:43;;;;;;;14.98;9.68;;;;;;;6.76;63.29;100757.56;5056945;28;20083;-60
2021/11/25 01:20:14;;;;;;;15.27;9.48;;;;;;;6.64;64.14;100767.28;5056569;28;20068;-60
2021/11/25 01:22:41;;;;;;;16.48;9.60;;;;;;;6.43;63.93;100763.06;5057161;28;20052;-59
2021/11/25 01:25:09;;;;;;;13.88;9.52;;;;;;;6.55;63.46;100763.50;5065713;27;20055;-61
2021/11/25 01:27:37;;;;;;;15.65;9.18;;;;;;;6.61;63.25;100760.44;5076794;28;20052;-58
2021/11/25 01:30:06;;;;;;;14.55;9.70;;;;;;;6.71;62.71;100762.28;5077252;28;20048;-59
2021/11/25 01:32:34;;;;;;;15.30;10.03;;;;;;;6.49;63.30;100762.72;5060081;28;20049;-59
2021/11/25 01:35:02;;;;;;;13.23;9.00;;;;;;;6.64;62.79;100768.06;5057350;28;20056;-59
2021/11/25 01:37:29;;;;;;;15.30;10.38;;;;;;;6.47;63.21;100773.13;5056546;28;20056;-58
2021/11/25 01:39:56;;;;;;;14.55;9.15;;;;;;;6.40;63.34;100769.91;5082387;28;20083;-60
2021/11/25 01:42:24;;;;;;;14.10;9.18;;;;;;;6.63;63.28;100780.13;5095665;28;20131;-58
2021/11/25 01:44:51;;;;;;;13.35;9.68;;;;;;;6.64;62.84;100765.34;5096807;28;20060;-58
2021/11/25 01:47:18;;;;;;;16.65;9.70;;;;;;;6.40;63.06;100766.34;5096426;28;20056;-57
2021/11/25 01:49:46;;;;;;;13.65;8.60;;;;;;;6.33;61.92;100755.72;5096038;28;20055;-59
2021/11/25 01:52:13;;;;;;;16.80;9.93;;;;;;;6.30;62.81;100756.31;5096883;28;20464;-59
2021/11/25 01:54:41;;;;;;;14.85;9.18;;;;;;;6.51;62.85;100756.97;5096571;28;20056;-61
2021/11/25 01:57:08;;;;;;;14.07;8.98;;;;;;;6.50;62.67;100764.34;5096665;28;20052;-59
2021/11/25 01:59:36;;;;;;;13.27;9.18;;;;;;;6.67;62.05;100762.03;5096273;28;20100;-60
2021/11/25 02:02:05;;;;;;;12.98;8.82;;;;;;;6.50;62.15;100755.34;5095195;28;20067;-59
2021/11/25 02:04:33;;;;;;;14.45;9.50;;;;;;;6.71;61.91;100757.59;5095320;28;20048;-59
2021/11/25 02:07:01;;;;;;;14.48;9.50;;;;;;;6.67;61.59;100756.56;5096654;28;20083;-58
2021/11/25 02:09:28;;;;;;;13.98;9.05;;;;;;;6.88;60.90;100751.72;5077730;28;20053;-60
2021/11/25 02:11:56;;;;;;;15.88;9.45;;;;;;;6.95;60.75;100767.81;5074771;28;20064;-59
2021/11/25 02:14:23;;;;;;;12.25;9.00;;;;;;;6.74;61.19;100759.81;5076236;28;20056;-60
2021/11/25 02:16:52;;;;;;;12.88;9.05;;;;;;;6.98;60.53;100748.06;5058042;28;20053;-56
2021/11/25 02:19:22;;;;;;;14.07;8.25;;;;;;;6.82;60.01;100758.34;5074794;28;20396;-59
2021/11/25 02:21:49;;;;;;;12.38;9.20;;;;;;;6.92;59.35;100754.72;5076219;28;20061;-60
2021/11/25 02:24:18;;;;;;;13.55;9.05;;;;;;;7.02;58.64;100754.59;5065882;28;20401;-58
2021/11/25 02:26:45;;;;;;;14.13;8.32;;;;;;;6.88;58.98;100756.38;5059379;28;20041;-59
2021/11/25 02:29:12;;;;;;;12.80;8.95;;;;;;;6.76;59.45;100746.63;5054754;28;20516;-61
2021/11/25 02:31:41;;;;;;;12.93;8.70;;;;;;;6.56;59.27;100749.53;5065195;28;20123;-60
2021/11/25 02:34:08;;;;;;;12.40;7.90;;;;;;;6.68;58.78;100752.72;5074992;28;20067;-59
2021/11/25 02:36:35;;;;;;;14.73;8.60;;;;;;;6.75;58.78;100742.25;5075561;28;20048;-56
2021/11/25 02:39:03;;;;;;;12.13;8.32;;;;;;;6.68;59.08;100736.28;5080805;28;20059;-59
2021/11/25 02:41:30;;;;;;;13.30;8.52;;;;;;;6.81;59.08;100737.56;5095708;28;20052;-60
2021/11/25 02:43:57;;;;;;;12.80;8.65;;;;;;;6.91;58.77;100742.09;5096138;28;20044;-57
2021/11/25 02:46:25;;;;;;;11.05;7.78;;;;;;;6.64;59.19;100743.44;5095359;28;20063;-61
2021/11/25 02:48:55;;;;;;;13.02;8.73;;;;;;;6.63;59.54;100738.25;5094457;28;20434;-62
2021/11/25 02:51:24;;;;;;;13.98;8.63;;;;;;;6.73;59.70;100738.97;5094738;28;20051;-62
2021/11/25 02:53:52;;;;;;;12.55;8.27;;;;;;;6.72;59.64;100737.38;5095731;28;20055;-62
2021/11/25 02:56:23;;;;;;;11.85;7.80;;;;;;;6.87;59.62;100733.66;5083849;28;20064;-63
2021/11/25 02:58:52;;;;;;;13.35;7.97;;;;;;;6.89;58.98;100733.38;5075260;28;20053;-63
2021/11/25 03:01:26;;;;;;;13.32;7.90;;;;;;;6.87;58.78;100732.84;5073529;28;20052;-62
2021/11/25 03:03:54;;;;;;;11.55;7.60;;;;;;;6.66;59.06;100729.47;5073827;28;20122;-62
2021/11/25 03:06:22;;;;;;;11.55;7.38;;;;;;;6.70;59.28;100728.63;5073774;28;20404;-62
2021/11/25 03:08:49;;;;;;;12.38;7.55;;;;;;;7.11;58.89;100725.47;5074731;28;20048;-62
2021/11/25 03:11:19;;;;;;;13.80;7.45;;;;;;;7.12;59.04;100732.59;5074057;28;20044;-62
2021/11/25 03:13:50;;;;;;;13.75;8.02;;;;;;;7.00;59.75;100722.03;5075282;28;20052;-62
2021/11/25 03:16:18;;;;;;;12.18;8.00;;;;;;;7.17;59.13;100727.88;5074731;28;20048;-62
2021/11/25 03:18:46;;;;;;;11.95;7.60;;;;;;;6.87;59.29;100721.91;5075193;28;20523;-61
2021/11/25 03:21:15;;;;;;;10.73;7.47;;;;;;;6.53;60.49;100721.94;5075007;28;20049;-62
2021/11/25 03:23:46;;;;;;;10.63;7.27;;;;;;;6.70;59.28;100716.84;5071179;28;20060;-62
2021/11/25 03:26:15;;;;;;;10.20;7.20;;;;;;;6.65;60.13;100717.72;5055367;28;20055;-61
2021/11/25 03:28:44;;;;;;;12.82;7.85;;;;;;;6.48;60.38;100711.84;5075038;28;20047;-62
2021/11/25 03:31:14;;;;;;;10.38;6.65;;;;;;;6.54;60.98;100718.91;5069136;28;20060;-63
2021/11/25 03:33:42;;;;;;;13.90;7.72;;;;;;;6.64;60.61;100721.53;5054592;28;20052;-62
2021/11/25 03:36:10;;;;;;;11.85;7.28;;;;;;;6.51;60.88;100721.41;5054898;28;20049;-62
2021/11/25 03:38:38;;;;;;;11.02;7.47;;;;;;;6.50;60.96;100725.25;5058088;28;20049;-62
2021/11/25 03:41:07;;;;;;;12.25;8.27;;;;;;;6.62;60.78;100721.03;5094994;28;20352;-62
2021/11/25 03:43:34;;;;;;;13.55;8.13;;;;;;;6.75;60.30;100720.34;5095174;28;20574;-61
2021/11/25 03:46:02;;;;;;;14.57;7.55;;;;;;;6.53;60.92;100722.75;5094657;28;20056;-61
2021/11/25 03:48:30;;;;;;;13.73;8.35;;;;;;;6.36;61.71;100718.78;5093739;28;20052;-62
2021/11/25 03:51:03;;;;;;;17.10;8.65;;;;;;;6.24;62.42;100712.88;5095074;28;20047;-62
2021/11/25 03:53:32;;;;;;;14.20;8.75;;;;;;;6.38;62.29;100713.84;5094827;28;20048;-62
2021/11/25 03:55:59;;;;;;;13.03;9.03;;;;;;;6.23;62.49;100711.22;5094950;28;20043;-61
2021/11/25 03:58:26;;;;;;;15.55;8.77;;;;;;;6.30;62.42;100723.47;5094889;28;20055;-62
2021/11/25 04:00:54;;;;;;;16.15;9.05;;;;;;;6.14;63.22;100721.13;5094698;28;20059;-62
2021/11/25 04:03:23;;;;;;;14.02;8.98;;;;;;;6.11;62.92;100724.44;5095031;28;20048;-58
2021/11/25 04:05:50;;;;;;;13.85;8.95;;;;;;;6.33;62.94;100711.16;5094759;28;20048;-59
2021/11/25 04:08:18;;;;;;;14.32;8.93;;;;;;;6.40;62.65;100725.31;5087167;28;20055;-59
2021/11/25 04:10:45;;;;;;;15.07;9.40;;;;;;;6.49;62.24;100724.41;5074092;28;20105;-61
2021/11/25 04:13:13;;;;;;;14.98;9.57;;;;;;;6.74;62.42;100726.13;5076810;28;20514;-59
2021/11/25 04:15:40;;;;;;;13.38;9.35;;;;;;;6.42;62.60;100723.09;5078200;28;20392;-58
2021/11/25 04:18:08;;;;;;;19.20;9.80;;;;;;;6.13;64.04;100714.03;5078620;28;20052;-59
2021/11/25 04:20:35;;;;;;;15.00;10.25;;;;;;;6.14;64.59;100713.75;5078854;28;20056;-58
2021/11/25 04:23:04;;;;;;;17.33;10.60;;;;;;;6.13;64.63;100720.34;5078985;28;20052;-58
2021/11/25 04:25:33;;;;;;;20.05;10.50;;;;;;;6.30;63.69;100714.44;5077001;28;20555;-60
2021/11/25 04:28:01;;;;;;;16.77;11.32;;;;;;;6.37;64.41;100710.28;5071538;28;20041;-58
2021/11/25 04:35:56;;;;;;;17.00;11.55;;;;;;;6.43;64.45;100716.56;5058016;28;20056;-58
2021/11/25 04:38:24;;;;;;;17.27;11.63;;;;;;;6.22;65.54;100712.34;5057633;28;20057;-56
2021/11/25 04:40:54;;;;;;;17.95;11.75;;;;;;;6.21;65.86;100714.25;5057608;28;20060;-62
2021/11/25 04:43:23;;;;;;;21.58;12.95;;;;;;;6.33;66.14;100711.16;5056694;28;20060;-60
2021/11/25 04:45:52;;;;;;;18.98;13.05;;;;;;;6.25;66.37;100720.78;5056629;28;20060;-58
2021/11/25 04:48:21;;;;;;;25.55;14.02;;;;;;;6.05;67.22;100718.19;5058040;28;20051;-62
2021/11/25 04:50:49;;;;;;;29.70;14.80;;;;;;;6.14;67.54;100721.94;5056478;28;20056;-62
2021/11/25 04:53:16;;;;;;;25.63;15.35;;;;;;;5.90;68.93;100712.00;5056365;28;20041;-62
2021/11/25 04:55:44;;;;;;;25.63;15.55;;;;;;;5.97;69.12;100707.84;5058041;28;20064;-62
2021/11/25 04:58:12;;;;;;;27.38;16.05;;;;;;;6.03;69.25;100716.84;5057752;28;20067;-63
2021/11/25 05:00:40;;;;;;;28.63;16.73;;;;;;;5.92;70.22;100713.34;5057701;28;20056;-62
2021/11/25 05:03:07;;;;;;;31.92;18.90;;;;;;;6.07;70.10;100713.25;5058288;28;20056;-63
2021/11/25 05:05:35;;;;;;;35.58;20.05;;;;;;;5.99;70.89;100716.59;5057435;28;20056;-62
2021/11/25 05:08:03;;;;;;;36.22;20.50;;;;;;;5.93;71.71;100716.91;5057139;28;20052;-62
2021/11/25 05:10:30;;;;;;;34.65;20.30;;;;;;;6.00;71.43;100720.94;5055924;28;20049;-61
2021/11/25 05:12:58;;;;;;;38.00;22.30;;;;;;;5.53;73.88;100726.09;5057168;28;20041;-59
2021/11/25 05:15:25;;;;;;;39.92;21.95;;;;;;;5.52;74.10;100710.81;5056003;28;20053;-62
2021/11/25 05:17:53;;;;;;;38.35;23.20;;;;;;;5.54;74.41;100714.88;5057087;28;20061;-63
2021/11/25 05:20:20;;;;;;;43.10;22.90;;;;;;;5.65;74.56;100704.72;5057508;28;20049;-62
2021/11/25 05:22:48;;;;;;;43.45;24.52;;;;;;;5.84;73.96;100702.22;5054830;28;20065;-62
2021/11/25 05:25:16;;;;;;;46.50;25.60;;;;;;;5.57;74.61;100703.41;5056804;28;20125;-60
2021/11/25 05:27:44;;;;;;;48.88;26.00;;;;;;;5.55;74.98;100702.03;5056906;28;20068;-60
2021/11/25 05:30:13;;;;;;;51.40;27.75;;;;;;;5.54;75.63;100705.88;5077351;28;20527;-57
2021/11/25 05:32:41;;;;;;;51.58;28.83;;;;;;;5.43;75.95;100709.75;5057731;28;20079;-59
2021/11/25 05:35:09;;;;;;;58.85;30.58;;;;;;;4.89;78.24;100711.56;5055739;28;20041;-58
2021/11/25 05:37:37;;;;;;;57.67;29.55;;;;;;;5.07;77.90;100710.97;5056592;28;20045;-56
2021/11/25 05:40:06;;;;;;;56.47;29.15;;;;;;;5.12;77.42;100713.69;5084766;28;20055;-62
2021/11/25 05:42:35;;;;;;;60.55;30.30;;;;;;;4.83;78.33;100709.94;5095591;28;20055;-62
2021/11/25 05:45:04;;;;;;;58.10;30.13;;;;;;;5.03;78.13;100716.19;5097329;28;20052;-62
2021/11/25 05:47:34;;;;;;;63.85;29.38;;;;;;;5.12;77.66;100727.34;5096878;28;20048;-62
2021/11/25 05:50:04;;;;;;;59.58;30.33;;;;;;;5.08;77.72;100720.78;5097265;28;20048;-64
2021/11/25 05:52:32;;;;;;;60.83;29.48;;;;;;;4.93;78.21;100718.94;5096495;28;20052;-61
2021/11/25 05:54:59;;;;;;;56.63;29.75;;;;;;;4.83;78.85;100734.50;5096731;28;20044;-62
2021/11/25 05:57:27;;;;;;;55.70;29.00;;;;;;;5.07;78.55;100730.09;5096509;28;20111;-64
2021/11/25 05:59:54;;;;;;;59.28;29.95;;;;;;;5.48;76.59;100734.31;5097121;28;20048;-63
2021/11/25 06:02:21;;;;;;;60.38;31.83;;;;;;;5.05;77.32;100746.75;5096756;28;20067;-64
2021/11/25 06:04:49;;;;;;;64.28;30.92;;;;;;;5.20;77.43;100740.41;5097281;28;20355;-63
2021/11/25 06:07:17;;;;;;;57.90;30.13;;;;;;;5.36;76.10;100745.56;5095457;28;20044;-63
2021/11/25 06:09:44;;;;;;;63.95;31.38;;;;;;;5.24;76.66;100752.41;5077872;28;20068;-63
2021/11/25 06:12:11;;;;;;;58.92;29.15;;;;;;;5.41;75.52;100759.19;5075316;28;20087;-63
2021/11/25 06:14:39;;;;;;;59.10;31.60;;;;;;;5.50;75.06;100760.25;5076299;28;20055;-62
2021/11/25 06:17:06;;;;;;;53.60;28.38;;;;;;;5.66;74.16;100752.81;5075974;28;20452;-62
2021/11/25 06:19:34;;;;;;;62.35;30.73;;;;;;;5.67;74.22;100758.00;5076161;28;20056;-62
2021/11/25 06:22:01;;;;;;;64.05;31.30;;;;;;;5.52;74.54;100758.06;5076359;28;20092;-63
2021/11/25 06:24:28;;;;;;;63.50;29.92;;;;;;;5.24;75.29;100763.34;5065552;28;20049;-62
2021/11/25 06:26:56;;;;;;;59.42;30.83;;;;;;;5.17;76.03;100750.00;5057852;28;20056;-62
2021/11/25 06:29:23;;;;;;;64.70;32.17;;;;;;;4.98;76.84;100745.38;5067909;28;20060;-63
2021/11/25 06:31:50;;;;;;;63.03;31.58;;;;;;;5.05;76.48;100760.41;5061122;28;20056;-63
2021/11/25 06:34:18;;;;;;;63.67;32.55;;;;;;;5.05;76.79;100754.09;5055928;28;20049;-63
2021/11/25 06:36:45;;;;;;;60.50;31.00;;;;;;;5.14;75.70;100763.38;5075654;28;20057;-59
2021/11/25 06:39:12;;;;;;;59.85;30.55;;;;;;;5.08;76.38;100761.72;5082189;28;20051;-59
2021/11/25 06:41:41;;;;;;;57.50;29.70;;;;;;;5.09;76.15;100750.53;5096117;28;20510;-57
2021/11/25 06:44:08;;;;;;;64.88;30.52;;;;;;;5.03;75.92;100761.75;5094782;28;20048;-58
2021/11/25 06:46:35;;;;;;;59.20;30.30;;;;;;;4.84;77.17;100764.25;5075611;28;20044;-61
2021/11/25 06:49:03;;;;;;;62.38;30.55;;;;;;;5.04;76.52;100757.94;5071438;28;20052;-60
2021/11/25 06:51:31;;;;;;;59.08;30.13;;;;;;;5.17;76.01;100754.63;5073162;28;20056;-59
2021/11/25 06:53:59;;;;;;;59.53;29.75;;;;;;;5.25;75.28;100756.78;5071233;28;20052;-60
2021/11/25 06:56:26;;;;;;;65.10;31.42;;;;;;;5.43;74.18;100762.47;5066112;28;20063;-60
2021/11/25 06:58:55;;;;;;;58.40;30.08;;;;;;;5.38;74.45;100764.41;5073373;28;20056;-59
2021/11/25 07:01:26;;;;;;;60.67;30.43;;;;;;;5.55;74.23;100770.34;5066184;28;20057;-58
2021/11/25 07:03:54;;;;;;;58.08;30.40;;;;;;;5.52;73.71;100770.91;5054787;28;20059;-61
2021/11/25 07:06:21;;;;;;;65.63;31.13;;;;;;;5.07;75.41;100788.25;5053927;28;20049;-56
2021/11/25 07:08:48;;;;;;;67.20;31.83;;;;;;;4.85;76.25;100787.69;5064280;28;20053;-62
2021/11/25 07:11:15;;;;;;;63.40;31.48;;;;;;;4.77;77.29;100793.72;5074085;28;20053;-56
2021/11/25 07:13:44;;;;;;;62.35;31.38;;;;;;;4.95;76.56;100806.00;5062078;28;20045;-57
2021/11/25 07:16:11;;;;;;;61.20;31.00;;;;;;;5.30;75.11;100797.75;5065775;28;20052;-59
2021/11/25 07:18:38;;;;;;;62.00;30.35;;;;;;;4.99;75.80;100802.44;5055300;28;20048;-59
2021/11/25 07:21:06;;;;;;;64.75;31.13;;;;;;;5.02;76.03;100807.31;5056964;28;20051;-59
2021/11/25 07:23:33;;;;;;;60.83;32.40;;;;;;;4.78;76.93;100797.28;5056644;28;20518;-59
2021/11/25 07:26:01;;;;;;;64.45;31.42;;;;;;;5.06;76.11;100793.94;5059814;28;20427;-60
2021/11/25 07:28:28;;;;;;;68.82;32.13;;;;;;;5.13;75.78;100799.94;5038899;28;20083;-61
2021/11/25 07:30:56;;;;;;;61.80;32.13;;;;;;;5.30;75.37;100800.47;5068985;28;20428;-59
2021/11/25 07:33:23;;;;;;;61.20;30.77;;;;;;;5.80;75.04;100808.50;5058157;28;20078;-58
2021/11/25 07:35:51;;;;;;;60.45;31.20;;;;;;;6.03;73.23;100809.81;5066480;28;20044;-59
2021/11/25 07:38:18;;;;;;;60.30;30.40;;;;;;;5.96;71.60;100815.59;5064063;28;20056;-58
2021/11/25 07:40:48;;;;;;;65.40;30.42;;;;;;;6.14;71.32;100822.31;5075674;28;20044;-60
2021/11/25 07:43:16;;;;;;;61.78;31.25;;;;;;;6.13;71.08;100826.16;5062674;28;20060;-62
2021/11/25 07:45:43;;;;;;;63.75;31.48;;;;;;;5.79;71.97;100845.13;5055268;28;20048;-56
2021/11/25 07:48:12;;;;;;;62.58;32.15;;;;;;;5.57;72.75;100842.75;5056029;28;20060;-60
2021/11/25 07:50:40;;;;;;;58.00;30.33;;;;;;;5.86;72.72;100850.34;5065473;28;20041;-59
2021/11/25 07:53:08;;;;;;;59.65;30.58;;;;;;;5.63;72.23;100846.28;5060046;28;20072;-60
2021/11/25 07:55:36;;;;;;;62.42;30.65;;;;;;;5.40;73.23;100846.88;5052949;28;20101;-59
2021/11/25 07:58:03;;;;;;;61.72;31.90;;;;;;;5.73;73.11;100840.78;5053775;28;20049;-59
2021/11/25 08:00:31;;;;;;;60.50;30.60;;;;;;;5.82;72.55;100841.03;5072948;28;20056;-58
2021/11/25 08:02:58;;;;;;;61.45;30.55;;;;;;;6.19;71.17;100842.25;5072612;28;20052;-59
2021/11/25 08:05:27;;;;;;;59.67;30.55;;;;;;;5.93;71.39;100843.47;5074162;28;20044;-59
2021/11/25 08:07:56;;;;;;;55.22;30.52;;;;;;;5.86;71.62;100853.88;5070612;28;20045;-59
2021/11/25 08:10:25;;;;;;;62.70;32.20;;;;;;;5.82;71.89;100863.72;5054983;28;20056;-59
2021/11/25 08:12:54;;;;;;;67.05;31.15;;;;;;;5.97;71.64;100863.69;5052916;28;20061;-59
2021/11/25 08:15:21;;;;;;;55.25;29.58;;;;;;;6.27;70.46;100868.19;5054199;28;20161;-61
2021/11/25 08:17:48;;;;;;;65.18;31.30;;;;;;;6.17;70.63;100869.06;5071120;28;20049;-58
2021/11/25 08:20:21;;;;;;;69.80;32.88;;;;;;;6.36;70.46;100870.03;5055426;28;20071;-60
2021/11/25 08:22:49;;;;;;;63.78;32.08;;;;;;;6.22;69.80;100869.06;5056512;28;20087;-58
2021/11/25 08:25:17;;;;;;;58.92;30.42;;;;;;;6.48;69.88;100872.47;5058950;28;20158;-57
2021/11/25 08:27:44;;;;;;;64.47;30.90;;;;;;;6.29;69.27;100880.50;5054552;28;20059;-58
2021/11/25 08:30:14;;;;;;;62.00;32.17;;;;;;;6.27;69.62;100879.97;5056891;28;20045;-59
2021/11/25 08:32:42;;;;;;;59.90;31.92;;;;;;;6.35;70.28;100876.63;5054055;28;20060;-59
2021/11/25 08:35:10;;;;;;;58.40;31.65;;;;;;;6.18;69.76;100880.81;5055957;28;20497;-60
2021/11/25 08:37:39;;;;;;;61.65;32.80;;;;;;;5.92;70.53;100887.47;5062240;28;20186;-60
2021/11/25 08:40:08;;;;;;;61.08;32.13;;;;;;;5.88;70.73;100889.94;5075633;28;20060;-61
2021/11/25 08:42:35;;;;;;;61.55;32.65;;;;;;;5.76;70.54;100889.41;5068052;28;20057;-58
2021/11/25 08:45:03;;;;;;;63.95;33.33;;;;;;;5.77;71.75;100893.78;5063285;28;20044;-58
2021/11/25 08:47:31;;;;;;;63.17;33.42;;;;;;;6.01;70.27;100880.34;5056479;28;20054;-60
2021/11/25 08:49:58;;;;;;;64.90;32.80;;;;;;;5.83;70.75;100875.47;5070988;28;20056;-60
2021/11/25 08:52:25;;;;;;;60.58;31.13;;;;;;;6.12;70.25;100882.75;5072317;28;20053;-59
2021/11/25 08:54:53;;;;;;;62.33;33.28;;;;;;;6.25;69.60;100884.06;5053588;28;20049;-61
2021/11/25 08:57:20;;;;;;;64.88;33.03;;;;;;;6.14;70.13;100879.72;5057825;28;20423;-58
2021/11/25 08:59:47;;;;;;;63.58;33.25;;;;;;;6.35;69.39;100868.44;5058561;28;20056;-61
2021/11/25 09:02:15;;;;;;;68.70;34.63;;;;;;;6.13;69.65;100872.63;5066809;28;20059;-61
2021/11/25 09:04:44;;;;;;;66.07;31.65;;;;;;;6.14;70.11;100872.34;5057225;28;20068;-61
2021/11/25 09:07:11;;;;;;;68.25;34.13;;;;;;;6.67;69.35;100870.69;5064994;28;20055;-58
2021/11/25 09:09:38;;;;;;;72.32;34.45;;;;;;;6.45;69.37;100873.84;5058741;28;20045;-60
2021/11/25 09:12:06;;;;;;;65.57;34.70;;;;;;;6.31;70.45;100870.06;5057326;28;20056;-59
2021/11/25 09:14:34;;;;;;;71.88;36.15;;;;;;;6.08;70.93;100865.28;5071937;28;20049;-61
2021/11/25 09:17:07;;;;;;;70.20;36.22;;;;;;;5.86;71.17;100862.06;5061429;28;20047;-61
2021/11/25 09:19:35;;;;;;;69.38;35.28;;;;;;;5.70;73.19;100861.28;5061914;28;20048;-60
2021/11/25 09:22:02;;;;;;;65.00;34.58;;;;;;;5.78;72.90;100861.81;5069752;28;20056;-61
2021/11/25 09:24:29;;;;;;;68.07;34.15;;;;;;;5.98;71.86;100857.09;5057405;28;20049;-60
2021/11/25 09:26:57;;;;;;;59.78;33.28;;;;;;;6.16;70.29;100858.41;5058233;28;20068;-60
2021/11/25 09:29:24;;;;;;;66.25;32.40;;;;;;;6.28;69.28;100862.44;5079165;28;20413;-60
2021/11/25 09:31:52;;;;;;;65.25;32.60;;;;;;;6.07;69.74;100860.06;5083209;28;20048;-61
2021/11/25 09:34:19;;;;;;;68.47;34.10;;;;;;;6.39;70.47;100858.56;5075390;28;20489;-60
2021/11/25 09:36:46;;;;;;;67.32;31.92;;;;;;;6.78;68.30;100855.84;5058862;28;20045;-59
2021/11/25 09:39:16;;;;;;;63.05;31.92;;;;;;;7.01;67.49;100849.63;5079919;28;20052;-63
2021/11/25 09:41:43;;;;;;;56.90;30.95;;;;;;;6.42;68.17;100858.00;5070232;28;20056;-64
2021/11/25 09:44:11;;;;;;;63.60;30.63;;;;;;;6.24;68.80;100860.56;5055630;28;20060;-63
2021/11/25 09:46:38;;;;;;;62.80;32.00;;;;;;;6.34;68.83;100861.31;5055506;28;20061;-64
2021/11/25 09:49:06;;;;;;;60.70;31.63;;;;;;;6.61;68.30;100844.44;5056608;28;20044;-63
2021/11/25 09:51:33;;;;;;;63.58;30.58;;;;;;;6.55;67.83;100846.44;5066663;28;20048;-64
2021/11/25 09:54:01;;;;;;;61.95;32.42;;;;;;;6.60;67.09;100846.41;5075137;28;20075;-63
2021/11/25 09:56:29;;;;;;;59.17;30.45;;;;;;;6.82;66.85;100851.41;5075297;28;20045;-64
2021/11/25 09:58:56;;;;;;;54.25;29.13;;;;;;;7.25;66.14;100849.69;5076387;28;20060;-66
2021/11/25 10:01:24;;;;;;;53.55;30.17;;;;;;;6.70;65.95;100853.69;5076142;28;20044;-63
2021/11/25 10:03:54;;;;;;;56.15;28.88;;;;;;;6.40;67.18;100867.56;5076638;28;20119;-63
2021/11/25 10:06:26;;;;;;;54.50;30.50;;;;;;;6.73;66.75;100861.34;5076323;28;20403;-63
2021/11/25 10:08:53;;;;;;;63.03;31.95;;;;;;;6.66;65.96;100869.88;5055384;28;20495;-63
2021/11/25 10:11:23;;;;;;;65.72;32.95;;;;;;;6.46;67.02;100872.75;5055474;28;20050;-64
2021/11/25 10:13:55;;;;;;;64.00;32.45;;;;;;;6.42;67.42;100868.94;5054857;28;20428;-64
2021/11/25 10:16:30;;;;;;;60.28;32.15;;;;;;;6.46;67.67;100867.28;5055739;28;20045;-63
2021/11/25 10:19:08;;;;;;;71.35;34.75;;;;;;;6.98;67.09;100874.03;5054330;28;20053;-64
2021/11/25 10:21:39;;;;;;;65.55;35.17;;;;;;;6.91;67.70;100870.78;5056305;28;20059;-63
2021/11/25 10:24:07;;;;;;;71.85;36.78;;;;;;;6.81;68.97;100858.84;5056430;28;20045;-63
2021/11/25 10:26:34;;;;;;;66.95;35.55;;;;;;;6.75;68.82;100864.63;5057365;28;20520;-63
2021/11/25 10:29:08;;;;;;;71.68;36.50;;;;;;;6.51;69.60;100855.47;5054522;28;20074;-64
2021/11/25 10:31:42;;;;;;;72.60;37.28;;;;;;;6.59;69.32;100869.38;5064678;28;20044;-65
2021/11/25 10:34:19;;;;;;;70.30;35.05;;;;;;;6.61;69.56;100866.34;5074558;28;20060;-64
2021/11/25 10:39:28;;;;;;;67.75;34.25;;;;;;;6.31;69.96;100864.59;5082540;28;20051;-64
2021/11/25 10:41:57;;;;;;;69.63;34.20;;;;;;;6.40;70.01;100871.13;5086005;28;20150;-65
2021/11/25 10:44:36;;;;;;;74.22;37.67;;;;;;;6.18;70.32;100867.16;5074157;28;20059;-63
2021/11/25 10:47:05;;;;;;;68.65;35.03;;;;;;;6.41;70.15;100869.22;5077911;28;20056;-64
2021/11/25 10:49:43;;;;;;;67.80;35.43;;;;;;;6.09;70.52;100860.63;5075500;28;20052;-63
2021/11/25 10:52:44;;;;;;;71.30;35.05;;;;;;;6.15;71.25;100854.88;5075417;28;20460;-63
2021/11/25 10:55:14;;;;;;;67.18;35.78;;;;;;;6.32;69.83;100851.75;5074478;28;20075;-63
2021/11/25 10:58:02;;;;;;;69.93;35.95;;;;;;;6.07;70.30;100849.97;5075506;28;20593;-63
2021/11/25 11:00:36;;;;;;;65.63;33.53;;;;;;;6.40;70.19;100846.50;5056121;28;20052;-63
2021/11/25 11:03:04;;;;;;;69.68;36.08;;;;;;;6.52;68.89;100844.25;5055507;28;20056;-64
2021/11/25 11:05:55;;;;;;;67.68;35.97;;;;;;;6.54;69.14;100841.22;5055450;28;20053;-64
2021/11/25 11:08:28;;;;;;;70.65;34.78;;;;;;;6.56;69.43;100836.28;5045133;28;20071;-64
2021/11/25 11:11:00;;;;;;;73.13;36.15;;;;;;;6.35;69.73;100837.50;5074781;28;20056;-63
2021/11/25 11:18:43;;;;;;;55.67;29.65;;;;;;;6.81;67.84;100822.41;5062861;28;20048;-60
2021/11/25 11:21:27;;;;;;;56.80;30.20;;;;;;;6.93;67.21;100828.34;5072282;28;20052;-61
2021/11/25 11:23:55;;;;;;;61.53;31.73;;;;;;;6.77;67.33;100832.28;5068553;28;20049;-60
2021/11/25 11:26:23;;;;;;;57.33;32.00;;;;;;;6.39;69.29;100841.31;5054684;28;20393;-57
2021/11/25 11:28:50;;;;;;;61.15;33.08;;;;;;;6.85;68.75;100834.44;5062862;28;20060;-59
2021/11/25 11:31:18;;;;;;;74.03;38.22;;;;;;;7.04;67.56;100842.78;5066439;28;20496;-60
2021/11/25 11:33:48;;;;;;;74.80;36.13;;;;;;;6.60;69.34;100840.09;5063274;28;20053;-60
2021/11/25 11:36:15;;;;;;;67.88;35.38;;;;;;;6.98;69.26;100841.16;5069355;28;20048;-61
2021/11/25 11:38:44;;;;;;;67.10;34.40;;;;;;;7.14;68.62;100837.19;5076881;28;20531;-58